sensor_id;sensor_type;location;lat;lon;timestamp;P1;durP1;ratioP1;P2;durP2;ratioP2
10987;SDS011;5547;42.672;23.230;2022-12-18T00:01:53;115.03;;;41.00;;
10987;SDS011;5547;42.672;23.230;2022-12-18T00:04:53;143.13;;;42.77;;
10987;SDS011;5547;42.672;23.230;2022-12-18T00:07:54;155.50;;;44.08;;
10987;SDS011;5547;42.672;23.230;2022-12-18T00:10:54;111.80;;;40.90;;
10987;SDS011;5547;42.672;23.230;2022-12-18T00:13:55;116.50;;;41.33;;
10987;SDS011;5547;42.672;23.230;2022-12-18T00:16:57;114.70;;;41.20;;
10987;SDS011;5547;42.672;23.230;2022-12-18T00:20:00;104.53;;;40.28;;
10987;SDS011;5547;42.672;23.230;2022-12-18T00:23:01;102.50;;;40.37;;
10987;SDS011;5547;42.672;23.230;2022-12-18T00:26:02;104.83;;;40.33;;
10987;SDS011;5547;42.672;23.230;2022-12-18T00:29:06;110.13;;;40.00;;
10987;SDS011;5547;42.672;23.230;2022-12-18T00:32:10;115.10;;;40.58;;
10987;SDS011;5547;42.672;23.230;2022-12-18T00:35:10;111.90;;;40.80;;
10987;SDS011;5547;42.672;23.230;2022-12-18T00:38:11;111.07;;;40.77;;
10987;SDS011;5547;42.672;23.230;2022-12-18T00:41:12;103.60;;;40.10;;
10987;SDS011;5547;42.672;23.230;2022-12-18T00:44:34;95.07;;;40.20;;
10987;SDS011;5547;42.672;23.230;2022-12-18T00:47:34;94.97;;;40.53;;
10987;SDS011;5547;42.672;23.230;2022-12-18T00:50:34;94.30;;;40.23;;
10987;SDS011;5547;42.672;23.230;2022-12-18T00:53:35;96.40;;;40.47;;
10987;SDS011;5547;42.672;23.230;2022-12-18T00:56:36;105.53;;;40.97;;
10987;SDS011;5547;42.672;23.230;2022-12-18T00:59:38;86.90;;;40.05;;
10987;SDS011;5547;42.672;23.230;2022-12-18T01:02:38;90.40;;;40.17;;
10987;SDS011;5547;42.672;23.230;2022-12-18T01:05:42;98.27;;;41.67;;
10987;SDS011;5547;42.672;23.230;2022-12-18T01:08:43;88.28;;;41.10;;
10987;SDS011;5547;42.672;23.230;2022-12-18T01:11:43;90.63;;;40.53;;
10987;SDS011;5547;42.672;23.230;2022-12-18T01:14:44;83.53;;;39.90;;
10987;SDS011;5547;42.672;23.230;2022-12-18T01:17:44;82.67;;;39.67;;
10987;SDS011;5547;42.672;23.230;2022-12-18T01:20:45;77.15;;;39.22;;
10987;SDS011;5547;42.672;23.230;2022-12-18T01:23:46;79.10;;;39.58;;
10987;SDS011;5547;42.672;23.230;2022-12-18T01:26:46;78.97;;;39.83;;
10987;SDS011;5547;42.672;23.230;2022-12-18T01:29:47;88.17;;;40.17;;
10987;SDS011;5547;42.672;23.230;2022-12-18T01:32:47;83.73;;;40.33;;
10987;SDS011;5547;42.672;23.230;2022-12-18T01:35:48;77.70;;;40.20;;
10987;SDS011;5547;42.672;23.230;2022-12-18T01:38:48;78.40;;;40.37;;
10987;SDS011;5547;42.672;23.230;2022-12-18T01:41:50;78.47;;;40.50;;
10987;SDS011;5547;42.672;23.230;2022-12-18T01:45:21;81.27;;;41.87;;
10987;SDS011;5547;42.672;23.230;2022-12-18T01:48:24;81.72;;;40.70;;
10987;SDS011;5547;42.672;23.230;2022-12-18T01:51:25;79.80;;;41.13;;
10987;SDS011;5547;42.672;23.230;2022-12-18T01:54:27;78.45;;;40.28;;
10987;SDS011;5547;42.672;23.230;2022-12-18T01:57:28;77.07;;;40.70;;
10987;SDS011;5547;42.672;23.230;2022-12-18T02:00:29;79.83;;;40.67;;
10987;SDS011;5547;42.672;23.230;2022-12-18T02:03:30;82.22;;;40.38;;
10987;SDS011;5547;42.672;23.230;2022-12-18T02:06:34;79.13;;;39.70;;
10987;SDS011;5547;42.672;23.230;2022-12-18T02:09:46;78.25;;;39.50;;
10987;SDS011;5547;42.672;23.230;2022-12-18T02:16:17;84.00;;;39.38;;
10987;SDS011;5547;42.672;23.230;2022-12-18T02:23:11;89.78;;;39.58;;
10987;SDS011;5547;42.672;23.230;2022-12-18T02:29:24;106.43;;;41.10;;
10987;SDS011;5547;42.672;23.230;2022-12-18T02:32:32;113.93;;;40.85;;
10987;SDS011;5547;42.672;23.230;2022-12-18T02:35:37;101.70;;;40.15;;
10987;SDS011;5547;42.672;23.230;2022-12-18T02:38:40;97.68;;;40.00;;
10987;SDS011;5547;42.672;23.230;2022-12-18T02:41:42;96.22;;;39.47;;
10987;SDS011;5547;42.672;23.230;2022-12-18T02:44:51;93.73;;;39.70;;
10987;SDS011;5547;42.672;23.230;2022-12-18T02:48:03;93.18;;;39.83;;
10987;SDS011;5547;42.672;23.230;2022-12-18T02:51:08;106.32;;;39.92;;
10987;SDS011;5547;42.672;23.230;2022-12-18T02:54:21;99.97;;;40.00;;
10987;SDS011;5547;42.672;23.230;2022-12-18T02:57:28;94.10;;;39.55;;
10987;SDS011;5547;42.672;23.230;2022-12-18T03:03:58;144.00;;;42.30;;
10987;SDS011;5547;42.672;23.230;2022-12-18T03:07:05;108.60;;;40.30;;
10987;SDS011;5547;42.672;23.230;2022-12-18T03:10:12;126.22;;;40.92;;
10987;SDS011;5547;42.672;23.230;2022-12-18T03:13:19;126.50;;;40.67;;
10987;SDS011;5547;42.672;23.230;2022-12-18T03:16:28;143.27;;;42.80;;
10987;SDS011;5547;42.672;23.230;2022-12-18T03:19:31;163.85;;;43.88;;
10987;SDS011;5547;42.672;23.230;2022-12-18T03:22:33;133.13;;;41.40;;
10987;SDS011;5547;42.672;23.230;2022-12-18T03:25:35;129.43;;;41.25;;
10987;SDS011;5547;42.672;23.230;2022-12-18T03:28:40;126.28;;;41.20;;
10987;SDS011;5547;42.672;23.230;2022-12-18T03:31:47;128.43;;;41.17;;
10987;SDS011;5547;42.672;23.230;2022-12-18T03:34:50;124.72;;;40.78;;
10987;SDS011;5547;42.672;23.230;2022-12-18T03:37:55;156.25;;;42.53;;
10987;SDS011;5547;42.672;23.230;2022-12-18T03:44:04;131.70;;;41.17;;
10987;SDS011;5547;42.672;23.230;2022-12-18T03:50:31;123.30;;;40.50;;
10987;SDS011;5547;42.672;23.230;2022-12-18T03:56:58;121.65;;;40.67;;
10987;SDS011;5547;42.672;23.230;2022-12-18T04:00:08;143.52;;;42.42;;
10987;SDS011;5547;42.672;23.230;2022-12-18T04:03:11;147.02;;;42.58;;
10987;SDS011;5547;42.672;23.230;2022-12-18T04:06:13;114.53;;;40.05;;
10987;SDS011;5547;42.672;23.230;2022-12-18T04:09:16;112.07;;;40.17;;
10987;SDS011;5547;42.672;23.230;2022-12-18T04:12:18;115.03;;;40.30;;
10987;SDS011;5547;42.672;23.230;2022-12-18T04:15:19;121.50;;;40.05;;
10987;SDS011;5547;42.672;23.230;2022-12-18T04:18:19;120.13;;;40.97;;
10987;SDS011;5547;42.672;23.230;2022-12-18T04:21:20;125.53;;;41.07;;
10987;SDS011;5547;42.672;23.230;2022-12-18T04:24:20;113.97;;;40.10;;
10987;SDS011;5547;42.672;23.230;2022-12-18T04:27:21;115.63;;;40.77;;
10987;SDS011;5547;42.672;23.230;2022-12-18T04:30:21;113.50;;;40.50;;
10987;SDS011;5547;42.672;23.230;2022-12-18T04:33:22;116.30;;;41.07;;
10987;SDS011;5547;42.672;23.230;2022-12-18T04:36:22;111.32;;;41.15;;
10987;SDS011;5547;42.672;23.230;2022-12-18T04:39:25;112.78;;;41.45;;
10987;SDS011;5547;42.672;23.230;2022-12-18T04:42:26;112.25;;;41.15;;
10987;SDS011;5547;42.672;23.230;2022-12-18T04:45:26;109.63;;;40.43;;
10987;SDS011;5547;42.672;23.230;2022-12-18T04:48:27;109.80;;;40.13;;
10987;SDS011;5547;42.672;23.230;2022-12-18T04:51:27;112.80;;;40.93;;
10987;SDS011;5547;42.672;23.230;2022-12-18T04:54:28;112.97;;;40.60;;
10987;SDS011;5547;42.672;23.230;2022-12-18T04:57:28;106.68;;;40.33;;
10987;SDS011;5547;42.672;23.230;2022-12-18T05:00:28;105.67;;;40.70;;
10987;SDS011;5547;42.672;23.230;2022-12-18T05:03:29;101.00;;;39.57;;
10987;SDS011;5547;42.672;23.230;2022-12-18T05:06:30;100.10;;;40.40;;
10987;SDS011;5547;42.672;23.230;2022-12-18T05:09:30;98.95;;;40.00;;
10987;SDS011;5547;42.672;23.230;2022-12-18T05:12:30;98.13;;;39.80;;
10987;SDS011;5547;42.672;23.230;2022-12-18T05:15:31;98.37;;;40.00;;
10987;SDS011;5547;42.672;23.230;2022-12-18T05:18:33;98.70;;;40.05;;
10987;SDS011;5547;42.672;23.230;2022-12-18T05:21:34;99.68;;;40.45;;
10987;SDS011;5547;42.672;23.230;2022-12-18T05:24:34;97.93;;;40.10;;
10987;SDS011;5547;42.672;23.230;2022-12-18T05:27:35;97.82;;;40.08;;
10987;SDS011;5547;42.672;23.230;2022-12-18T05:30:36;99.00;;;40.70;;
10987;SDS011;5547;42.672;23.230;2022-12-18T05:33:36;100.00;;;40.53;;
10987;SDS011;5547;42.672;23.230;2022-12-18T05:36:37;101.82;;;40.90;;
10987;SDS011;5547;42.672;23.230;2022-12-18T05:39:37;99.57;;;40.80;;
10987;SDS011;5547;42.672;23.230;2022-12-18T05:42:38;99.20;;;40.73;;
10987;SDS011;5547;42.672;23.230;2022-12-18T05:45:39;100.67;;;42.77;;
10987;SDS011;5547;42.672;23.230;2022-12-18T05:48:40;99.97;;;41.92;;
10987;SDS011;5547;42.672;23.230;2022-12-18T05:51:41;99.25;;;41.40;;
10987;SDS011;5547;42.672;23.230;2022-12-18T05:54:42;99.60;;;41.22;;
10987;SDS011;5547;42.672;23.230;2022-12-18T05:57:42;99.63;;;41.67;;
10987;SDS011;5547;42.672;23.230;2022-12-18T06:00:44;102.63;;;42.23;;
10987;SDS011;5547;42.672;23.230;2022-12-18T06:03:45;101.65;;;41.95;;
10987;SDS011;5547;42.672;23.230;2022-12-18T06:06:46;99.25;;;40.80;;
10987;SDS011;5547;42.672;23.230;2022-12-18T06:09:46;97.88;;;41.10;;
10987;SDS011;5547;42.672;23.230;2022-12-18T06:12:47;98.20;;;41.20;;
10987;SDS011;5547;42.672;23.230;2022-12-18T06:15:47;98.67;;;41.53;;
10987;SDS011;5547;42.672;23.230;2022-12-18T06:18:47;98.53;;;41.60;;
10987;SDS011;5547;42.672;23.230;2022-12-18T06:21:48;100.30;;;42.20;;
10987;SDS011;5547;42.672;23.230;2022-12-18T06:24:49;108.07;;;44.70;;
10987;SDS011;5547;42.672;23.230;2022-12-18T06:27:49;107.27;;;44.07;;
10987;SDS011;5547;42.672;23.230;2022-12-18T06:30:50;109.20;;;44.30;;
10987;SDS011;5547;42.672;23.230;2022-12-18T06:33:51;113.10;;;42.90;;
10987;SDS011;5547;42.672;23.230;2022-12-18T06:36:52;124.80;;;44.17;;
10987;SDS011;5547;42.672;23.230;2022-12-18T06:39:53;116.68;;;43.67;;
10987;SDS011;5547;42.672;23.230;2022-12-18T06:42:54;116.15;;;43.38;;
10987;SDS011;5547;42.672;23.230;2022-12-18T06:45:59;114.17;;;43.17;;
10987;SDS011;5547;42.672;23.230;2022-12-18T06:49:00;120.65;;;42.75;;
10987;SDS011;5547;42.672;23.230;2022-12-18T06:52:00;113.97;;;44.13;;
10987;SDS011;5547;42.672;23.230;2022-12-18T06:55:01;108.27;;;42.47;;
10987;SDS011;5547;42.672;23.230;2022-12-18T06:58:01;107.68;;;41.97;;
10987;SDS011;5547;42.672;23.230;2022-12-18T07:01:03;106.18;;;42.25;;
10987;SDS011;5547;42.672;23.230;2022-12-18T07:04:05;107.67;;;42.43;;
10987;SDS011;5547;42.672;23.230;2022-12-18T07:07:05;106.28;;;42.70;;
10987;SDS011;5547;42.672;23.230;2022-12-18T07:10:06;106.80;;;42.73;;
10987;SDS011;5547;42.672;23.230;2022-12-18T07:13:06;110.27;;;42.50;;
10987;SDS011;5547;42.672;23.230;2022-12-18T07:16:08;112.93;;;43.40;;
10987;SDS011;5547;42.672;23.230;2022-12-18T07:19:10;110.23;;;42.63;;
10987;SDS011;5547;42.672;23.230;2022-12-18T07:22:10;110.35;;;43.13;;
10987;SDS011;5547;42.672;23.230;2022-12-18T07:25:11;112.57;;;43.67;;
10987;SDS011;5547;42.672;23.230;2022-12-18T07:28:11;108.80;;;42.23;;
10987;SDS011;5547;42.672;23.230;2022-12-18T07:31:13;108.10;;;42.83;;
10987;SDS011;5547;42.672;23.230;2022-12-18T07:34:18;109.97;;;44.58;;
10987;SDS011;5547;42.672;23.230;2022-12-18T07:37:18;105.13;;;43.00;;
10987;SDS011;5547;42.672;23.230;2022-12-18T07:40:19;106.17;;;43.00;;
10987;SDS011;5547;42.672;23.230;2022-12-18T07:43:19;106.60;;;43.00;;
10987;SDS011;5547;42.672;23.230;2022-12-18T07:46:19;106.07;;;43.73;;
10987;SDS011;5547;42.672;23.230;2022-12-18T07:49:20;108.60;;;44.03;;
10987;SDS011;5547;42.672;23.230;2022-12-18T07:52:20;109.40;;;45.47;;
10987;SDS011;5547;42.672;23.230;2022-12-18T07:55:21;113.97;;;48.15;;
10987;SDS011;5547;42.672;23.230;2022-12-18T07:58:21;110.23;;;45.80;;
10987;SDS011;5547;42.672;23.230;2022-12-18T08:01:22;110.13;;;44.63;;
10987;SDS011;5547;42.672;23.230;2022-12-18T08:04:22;108.07;;;44.53;;
10987;SDS011;5547;42.672;23.230;2022-12-18T08:07:23;110.07;;;45.57;;
10987;SDS011;5547;42.672;23.230;2022-12-18T08:10:23;110.13;;;45.30;;
10987;SDS011;5547;42.672;23.230;2022-12-18T08:13:24;109.00;;;44.33;;
10987;SDS011;5547;42.672;23.230;2022-12-18T08:16:25;110.50;;;45.72;;
10987;SDS011;5547;42.672;23.230;2022-12-18T08:19:25;112.60;;;45.90;;
10987;SDS011;5547;42.672;23.230;2022-12-18T08:22:26;111.95;;;46.28;;
10987;SDS011;5547;42.672;23.230;2022-12-18T08:25:26;111.00;;;46.70;;
10987;SDS011;5547;42.672;23.230;2022-12-18T08:28:26;111.57;;;47.53;;
10987;SDS011;5547;42.672;23.230;2022-12-18T08:31:27;113.43;;;47.63;;
10987;SDS011;5547;42.672;23.230;2022-12-18T08:34:29;112.20;;;47.33;;
10987;SDS011;5547;42.672;23.230;2022-12-18T08:37:30;113.10;;;47.78;;
10987;SDS011;5547;42.672;23.230;2022-12-18T08:40:30;112.23;;;47.23;;
10987;SDS011;5547;42.672;23.230;2022-12-18T08:43:31;114.20;;;47.67;;
10987;SDS011;5547;42.672;23.230;2022-12-18T08:46:50;112.63;;;46.25;;
10987;SDS011;5547;42.672;23.230;2022-12-18T08:49:50;112.30;;;47.07;;
10987;SDS011;5547;42.672;23.230;2022-12-18T08:52:51;111.87;;;48.07;;
10987;SDS011;5547;42.672;23.230;2022-12-18T08:55:51;112.53;;;47.27;;
10987;SDS011;5547;42.672;23.230;2022-12-18T08:58:52;116.30;;;47.77;;
10987;SDS011;5547;42.672;23.230;2022-12-18T09:01:54;114.40;;;47.80;;
10987;SDS011;5547;42.672;23.230;2022-12-18T09:04:55;114.93;;;48.05;;
10987;SDS011;5547;42.672;23.230;2022-12-18T09:07:55;111.93;;;47.00;;
10987;SDS011;5547;42.672;23.230;2022-12-18T09:10:56;111.13;;;46.00;;
10987;SDS011;5547;42.672;23.230;2022-12-18T09:13:57;115.97;;;47.53;;
10987;SDS011;5547;42.672;23.230;2022-12-18T09:16:59;112.15;;;46.55;;
10987;SDS011;5547;42.672;23.230;2022-12-18T09:19:59;110.73;;;46.47;;
10987;SDS011;5547;42.672;23.230;2022-12-18T09:23:00;108.23;;;45.40;;
10987;SDS011;5547;42.672;23.230;2022-12-18T09:26:00;108.03;;;45.40;;
10987;SDS011;5547;42.672;23.230;2022-12-18T09:29:02;110.97;;;46.33;;
10987;SDS011;5547;42.672;23.230;2022-12-18T09:32:03;111.13;;;45.97;;
10987;SDS011;5547;42.672;23.230;2022-12-18T09:35:03;115.13;;;46.23;;
10987;SDS011;5547;42.672;23.230;2022-12-18T09:38:04;108.93;;;45.28;;
10987;SDS011;5547;42.672;23.230;2022-12-18T09:44:19;120.30;;;47.80;;
10987;SDS011;5547;42.672;23.230;2022-12-18T09:50:37;113.28;;;46.63;;
10987;SDS011;5547;42.672;23.230;2022-12-18T09:53:39;110.70;;;46.22;;
10987;SDS011;5547;42.672;23.230;2022-12-18T09:56:44;116.63;;;47.33;;
10987;SDS011;5547;42.672;23.230;2022-12-18T09:59:46;114.13;;;46.03;;
10987;SDS011;5547;42.672;23.230;2022-12-18T10:02:52;109.88;;;44.92;;
10987;SDS011;5547;42.672;23.230;2022-12-18T10:06:07;107.80;;;44.33;;
10987;SDS011;5547;42.672;23.230;2022-12-18T10:09:28;111.60;;;45.60;;
10987;SDS011;5547;42.672;23.230;2022-12-18T10:12:40;113.03;;;45.40;;
10987;SDS011;5547;42.672;23.230;2022-12-18T10:26:00;109.43;;;44.87;;
10987;SDS011;5547;42.672;23.230;2022-12-18T10:29:07;110.45;;;44.53;;
10987;SDS011;5547;42.672;23.230;2022-12-18T10:32:19;110.17;;;44.93;;
10987;SDS011;5547;42.672;23.230;2022-12-18T10:35:25;110.13;;;44.92;;
10987;SDS011;5547;42.672;23.230;2022-12-18T10:38:27;111.50;;;45.42;;
10987;SDS011;5547;42.672;23.230;2022-12-18T10:41:29;112.25;;;44.80;;
10987;SDS011;5547;42.672;23.230;2022-12-18T10:44:30;109.70;;;44.42;;
10987;SDS011;5547;42.672;23.230;2022-12-18T10:47:31;110.47;;;44.67;;
10987;SDS011;5547;42.672;23.230;2022-12-18T10:50:34;110.37;;;44.80;;
10987;SDS011;5547;42.672;23.230;2022-12-18T10:53:37;112.25;;;44.85;;
10987;SDS011;5547;42.672;23.230;2022-12-18T10:56:41;109.20;;;43.97;;
10987;SDS011;5547;42.672;23.230;2022-12-18T10:59:52;108.63;;;44.63;;
10987;SDS011;5547;42.672;23.230;2022-12-18T11:02:54;108.07;;;44.22;;
10987;SDS011;5547;42.672;23.230;2022-12-18T11:06:03;108.15;;;44.30;;
10987;SDS011;5547;42.672;23.230;2022-12-18T11:09:19;105.45;;;42.90;;
10987;SDS011;5547;42.672;23.230;2022-12-18T11:12:21;110.47;;;44.45;;
10987;SDS011;5547;42.672;23.230;2022-12-18T11:15:26;108.72;;;43.78;;
10987;SDS011;5547;42.672;23.230;2022-12-18T11:18:33;111.30;;;44.60;;
10987;SDS011;5547;42.672;23.230;2022-12-18T11:21:38;107.43;;;43.25;;
10987;SDS011;5547;42.672;23.230;2022-12-18T11:24:42;107.45;;;43.55;;
10987;SDS011;5547;42.672;23.230;2022-12-18T11:27:53;110.53;;;43.60;;
10987;SDS011;5547;42.672;23.230;2022-12-18T11:31:09;107.78;;;43.65;;
10987;SDS011;5547;42.672;23.230;2022-12-18T11:34:19;109.85;;;43.78;;
10987;SDS011;5547;42.672;23.230;2022-12-18T11:37:27;110.95;;;44.30;;
10987;SDS011;5547;42.672;23.230;2022-12-18T11:40:38;106.88;;;42.95;;
10987;SDS011;5547;42.672;23.230;2022-12-18T11:43:55;108.82;;;43.33;;
10987;SDS011;5547;42.672;23.230;2022-12-18T11:47:03;107.77;;;43.37;;
10987;SDS011;5547;42.672;23.230;2022-12-18T11:50:24;110.03;;;44.25;;
10987;SDS011;5547;42.672;23.230;2022-12-18T11:53:28;113.68;;;44.80;;
10987;SDS011;5547;42.672;23.230;2022-12-18T11:56:35;113.03;;;43.80;;
10987;SDS011;5547;42.672;23.230;2022-12-18T12:00:01;110.07;;;43.20;;
10987;SDS011;5547;42.672;23.230;2022-12-18T12:03:12;109.20;;;42.88;;
10987;SDS011;5547;42.672;23.230;2022-12-18T12:19:38;129.48;;;50.35;;
10987;SDS011;5547;42.672;23.230;2022-12-18T12:22:58;124.28;;;50.45;;
10987;SDS011;5547;42.672;23.230;2022-12-18T12:26:06;116.47;;;48.63;;
10987;SDS011;5547;42.672;23.230;2022-12-18T12:32:48;115.65;;;47.15;;
10987;SDS011;5547;42.672;23.230;2022-12-18T12:39:30;110.47;;;45.75;;
10987;SDS011;5547;42.672;23.230;2022-12-18T12:42:37;111.80;;;45.40;;
10987;SDS011;5547;42.672;23.230;2022-12-18T12:46:11;110.57;;;44.90;;
10987;SDS011;5547;42.672;23.230;2022-12-18T12:49:15;109.93;;;44.78;;
10987;SDS011;5547;42.672;23.230;2022-12-18T12:52:27;112.35;;;44.97;;
10987;SDS011;5547;42.672;23.230;2022-12-18T12:55:51;107.07;;;44.40;;
10987;SDS011;5547;42.672;23.230;2022-12-18T13:08:54;109.80;;;44.23;;
10987;SDS011;5547;42.672;23.230;2022-12-18T13:11:57;111.60;;;45.22;;
10987;SDS011;5547;42.672;23.230;2022-12-18T13:18:27;110.93;;;44.88;;
10987;SDS011;5547;42.672;23.230;2022-12-18T13:21:29;108.70;;;44.13;;
10987;SDS011;5547;42.672;23.230;2022-12-18T13:24:33;118.20;;;46.23;;
10987;SDS011;5547;42.672;23.230;2022-12-18T13:30:46;108.85;;;43.65;;
10987;SDS011;5547;42.672;23.230;2022-12-18T13:33:50;109.93;;;45.05;;
10987;SDS011;5547;42.672;23.230;2022-12-18T13:36:51;109.33;;;44.10;;
10987;SDS011;5547;42.672;23.230;2022-12-18T13:39:52;106.63;;;43.65;;
10987;SDS011;5547;42.672;23.230;2022-12-18T13:42:53;110.22;;;44.42;;
10987;SDS011;5547;42.672;23.230;2022-12-18T13:46:27;108.13;;;43.80;;
10987;SDS011;5547;42.672;23.230;2022-12-18T13:49:47;113.78;;;46.20;;
10987;SDS011;5547;42.672;23.230;2022-12-18T13:52:47;112.00;;;45.23;;
10987;SDS011;5547;42.672;23.230;2022-12-18T13:55:48;108.60;;;43.77;;
10987;SDS011;5547;42.672;23.230;2022-12-18T14:02:14;107.05;;;43.85;;
10987;SDS011;5547;42.672;23.230;2022-12-18T14:05:23;106.63;;;43.35;;
10987;SDS011;5547;42.672;23.230;2022-12-18T14:08:24;108.82;;;44.20;;
10987;SDS011;5547;42.672;23.230;2022-12-18T14:11:30;109.25;;;44.08;;
10987;SDS011;5547;42.672;23.230;2022-12-18T14:14:32;108.32;;;42.92;;
10987;SDS011;5547;42.672;23.230;2022-12-18T14:17:33;106.93;;;42.53;;
10987;SDS011;5547;42.672;23.230;2022-12-18T14:20:33;108.33;;;43.33;;
10987;SDS011;5547;42.672;23.230;2022-12-18T14:23:39;107.68;;;43.58;;
10987;SDS011;5547;42.672;23.230;2022-12-18T14:26:41;112.60;;;44.50;;
10987;SDS011;5547;42.672;23.230;2022-12-18T14:29:42;110.60;;;43.67;;
10987;SDS011;5547;42.672;23.230;2022-12-18T14:32:44;111.00;;;44.07;;
10987;SDS011;5547;42.672;23.230;2022-12-18T14:36:01;107.93;;;43.80;;
10987;SDS011;5547;42.672;23.230;2022-12-18T14:39:03;111.25;;;44.00;;
10987;SDS011;5547;42.672;23.230;2022-12-18T14:42:03;106.50;;;43.03;;
10987;SDS011;5547;42.672;23.230;2022-12-18T14:51:39;106.53;;;42.97;;
10987;SDS011;5547;42.672;23.230;2022-12-18T14:54:39;109.53;;;44.57;;
10987;SDS011;5547;42.672;23.230;2022-12-18T14:57:39;113.80;;;46.20;;
10987;SDS011;5547;42.672;23.230;2022-12-18T15:00:43;114.22;;;47.05;;
10987;SDS011;5547;42.672;23.230;2022-12-18T15:03:43;108.23;;;43.10;;
10987;SDS011;5547;42.672;23.230;2022-12-18T15:06:44;109.72;;;43.55;;
10987;SDS011;5547;42.672;23.230;2022-12-18T15:13:09;112.47;;;44.43;;
10987;SDS011;5547;42.672;23.230;2022-12-18T15:16:21;118.72;;;43.97;;
10987;SDS011;5547;42.672;23.230;2022-12-18T15:19:22;117.83;;;45.10;;
10987;SDS011;5547;42.672;23.230;2022-12-18T15:22:34;121.03;;;45.58;;
10987;SDS011;5547;42.672;23.230;2022-12-18T15:25:36;118.82;;;45.25;;
10987;SDS011;5547;42.672;23.230;2022-12-18T15:28:47;117.68;;;44.33;;
10987;SDS011;5547;42.672;23.230;2022-12-18T15:35:21;118.30;;;44.35;;
10987;SDS011;5547;42.672;23.230;2022-12-18T15:38:22;123.70;;;43.85;;
10987;SDS011;5547;42.672;23.230;2022-12-18T15:41:23;122.25;;;43.80;;
10987;SDS011;5547;42.672;23.230;2022-12-18T15:44:24;125.78;;;45.30;;
10987;SDS011;5547;42.672;23.230;2022-12-18T15:47:25;123.45;;;44.78;;
10987;SDS011;5547;42.672;23.230;2022-12-18T15:50:25;121.00;;;44.17;;
10987;SDS011;5547;42.672;23.230;2022-12-18T15:53:29;119.10;;;43.43;;
10987;SDS011;5547;42.672;23.230;2022-12-18T15:56:32;120.00;;;43.85;;
10987;SDS011;5547;42.672;23.230;2022-12-18T15:59:52;120.22;;;44.17;;
10987;SDS011;5547;42.672;23.230;2022-12-18T16:02:57;119.15;;;43.95;;
10987;SDS011;5547;42.672;23.230;2022-12-18T16:05:58;122.03;;;44.20;;
10987;SDS011;5547;42.672;23.230;2022-12-18T16:09:01;126.00;;;44.15;;
10987;SDS011;5547;42.672;23.230;2022-12-18T16:12:02;135.40;;;44.30;;
10987;SDS011;5547;42.672;23.230;2022-12-18T16:15:03;133.50;;;44.17;;
10987;SDS011;5547;42.672;23.230;2022-12-18T16:18:04;132.60;;;43.92;;
10987;SDS011;5547;42.672;23.230;2022-12-18T16:21:05;129.53;;;44.10;;
10987;SDS011;5547;42.672;23.230;2022-12-18T16:24:05;128.67;;;44.43;;
10987;SDS011;5547;42.672;23.230;2022-12-18T16:27:13;130.13;;;45.47;;
10987;SDS011;5547;42.672;23.230;2022-12-18T16:30:17;127.65;;;45.63;;
10987;SDS011;5547;42.672;23.230;2022-12-18T16:33:19;131.32;;;46.25;;
10987;SDS011;5547;42.672;23.230;2022-12-18T16:36:20;127.20;;;44.83;;
10987;SDS011;5547;42.672;23.230;2022-12-18T16:39:20;128.33;;;45.83;;
10987;SDS011;5547;42.672;23.230;2022-12-18T16:42:21;132.20;;;46.35;;
10987;SDS011;5547;42.672;23.230;2022-12-18T16:45:21;129.02;;;45.47;;
10987;SDS011;5547;42.672;23.230;2022-12-18T16:48:22;130.43;;;45.53;;
10987;SDS011;5547;42.672;23.230;2022-12-18T16:51:22;149.00;;;45.90;;
10987;SDS011;5547;42.672;23.230;2022-12-18T16:54:23;147.95;;;45.42;;
10987;SDS011;5547;42.672;23.230;2022-12-18T16:57:24;149.02;;;46.03;;
10987;SDS011;5547;42.672;23.230;2022-12-18T17:00:24;144.07;;;45.22;;
10987;SDS011;5547;42.672;23.230;2022-12-18T17:03:25;150.40;;;46.73;;
10987;SDS011;5547;42.672;23.230;2022-12-18T17:06:26;142.90;;;45.45;;
10987;SDS011;5547;42.672;23.230;2022-12-18T17:09:28;132.45;;;44.55;;
10987;SDS011;5547;42.672;23.230;2022-12-18T17:12:29;134.17;;;43.70;;
10987;SDS011;5547;42.672;23.230;2022-12-18T17:15:30;132.52;;;43.80;;
10987;SDS011;5547;42.672;23.230;2022-12-18T17:18:34;137.20;;;44.80;;
10987;SDS011;5547;42.672;23.230;2022-12-18T17:21:35;136.50;;;44.85;;
10987;SDS011;5547;42.672;23.230;2022-12-18T17:24:35;134.27;;;44.47;;
10987;SDS011;5547;42.672;23.230;2022-12-18T17:27:36;135.23;;;44.30;;
10987;SDS011;5547;42.672;23.230;2022-12-18T17:30:36;134.70;;;44.87;;
10987;SDS011;5547;42.672;23.230;2022-12-18T17:33:37;133.80;;;43.72;;
10987;SDS011;5547;42.672;23.230;2022-12-18T17:36:38;137.53;;;45.57;;
10987;SDS011;5547;42.672;23.230;2022-12-18T17:39:38;132.68;;;44.30;;
10987;SDS011;5547;42.672;23.230;2022-12-18T17:42:39;137.30;;;45.53;;
10987;SDS011;5547;42.672;23.230;2022-12-18T17:45:39;136.30;;;45.43;;
10987;SDS011;5547;42.672;23.230;2022-12-18T17:48:40;138.30;;;45.87;;
10987;SDS011;5547;42.672;23.230;2022-12-18T17:51:40;138.00;;;45.30;;
10987;SDS011;5547;42.672;23.230;2022-12-18T17:54:41;137.27;;;44.78;;
10987;SDS011;5547;42.672;23.230;2022-12-18T17:57:43;138.73;;;46.10;;
10987;SDS011;5547;42.672;23.230;2022-12-18T18:00:43;141.03;;;47.10;;
10987;SDS011;5547;42.672;23.230;2022-12-18T18:03:44;135.10;;;46.25;;
10987;SDS011;5547;42.672;23.230;2022-12-18T18:06:46;139.70;;;47.75;;
10987;SDS011;5547;42.672;23.230;2022-12-18T18:09:46;143.57;;;48.03;;
10987;SDS011;5547;42.672;23.230;2022-12-18T18:12:47;134.93;;;45.33;;
10987;SDS011;5547;42.672;23.230;2022-12-18T18:16:06;132.48;;;43.83;;
10987;SDS011;5547;42.672;23.230;2022-12-18T18:19:09;132.27;;;44.20;;
10987;SDS011;5547;42.672;23.230;2022-12-18T18:22:12;131.38;;;44.25;;
10987;SDS011;5547;42.672;23.230;2022-12-18T18:25:12;133.27;;;44.57;;
10987;SDS011;5547;42.672;23.230;2022-12-18T18:28:13;132.03;;;45.27;;
10987;SDS011;5547;42.672;23.230;2022-12-18T18:31:13;132.10;;;44.65;;
10987;SDS011;5547;42.672;23.230;2022-12-18T18:34:14;137.47;;;45.53;;
10987;SDS011;5547;42.672;23.230;2022-12-18T18:37:19;138.57;;;46.97;;
10987;SDS011;5547;42.672;23.230;2022-12-18T18:40:19;136.87;;;46.83;;
10987;SDS011;5547;42.672;23.230;2022-12-18T18:43:20;146.48;;;49.00;;
10987;SDS011;5547;42.672;23.230;2022-12-18T18:46:21;135.23;;;46.10;;
10987;SDS011;5547;42.672;23.230;2022-12-18T18:49:22;133.95;;;44.78;;
10987;SDS011;5547;42.672;23.230;2022-12-18T18:52:25;136.40;;;45.65;;
10987;SDS011;5547;42.672;23.230;2022-12-18T18:55:26;138.40;;;45.50;;
10987;SDS011;5547;42.672;23.230;2022-12-18T18:58:27;136.77;;;44.33;;
10987;SDS011;5547;42.672;23.230;2022-12-18T19:01:28;135.13;;;43.00;;
10987;SDS011;5547;42.672;23.230;2022-12-18T19:04:29;134.93;;;43.37;;
10987;SDS011;5547;42.672;23.230;2022-12-18T19:07:29;134.65;;;43.58;;
10987;SDS011;5547;42.672;23.230;2022-12-18T19:10:30;137.43;;;44.40;;
10987;SDS011;5547;42.672;23.230;2022-12-18T19:13:31;132.60;;;44.27;;